Time;durP1;ratioP1;P1;durP2;ratioP2;P2;SDS_P1;SDS_P2;PMS_P1;PMS_P2;Temp;Humidity;BMP_temperature;BMP_pressure;BME280_temperature;BME280_humidity;BME280_pressure;Samples;Min_cycle;Max_cycle;Signal;HPM_P1;HPM_P2
2022/01/24 00:01:42;;;;;;;41.78;17.95;;;;;;;9.59;56.04;102760.56;5071050;28;19960;-75
2022/01/24 00:04:09;;;;;;;49.50;20.25;;;;;;;9.52;55.88;102765.47;5070481;28;20414;-74
2022/01/24 00:06:36;;;;;;;46.05;19.83;;;;;;;9.61;55.65;102763.13;5072257;28;20071;-73
2022/01/24 00:09:05;;;;;;;51.33;20.80;;;;;;;9.59;55.67;102767.75;5071090;28;20064;-75
2022/01/24 00:11:46;;;;;;;44.67;20.15;;;;;;;9.55;55.82;102761.75;5071658;28;20468;-75
2022/01/24 00:27:45;;;;;;;53.88;22.17;;;;;;;9.61;55.83;102758.63;5071279;28;20074;-75
2022/01/24 00:30:12;;;;;;;42.60;21.30;;;;;;;9.52;56.06;102760.13;5053181;28;20389;-75
2022/01/24 00:32:38;;;;;;;49.72;21.48;;;;;;;9.60;55.79;102766.78;5071034;28;20522;-75
2022/01/24 00:35:05;;;;;;;54.38;20.88;;;;;;;9.57;55.95;102762.47;5070197;28;20036;-75
2022/01/24 00:37:33;;;;;;;46.10;20.33;;;;;;;9.55;55.71;102765.28;5072136;28;20481;-75
2022/01/24 00:40:01;;;;;;;47.08;21.33;;;;;;;9.60;55.84;102772.16;5071589;28;20052;-75
2022/01/24 00:42:34;;;;;;;45.28;20.98;;;;;;;9.63;55.73;102763.91;5071809;28;20215;-75
2022/01/24 00:45:07;;;;;;;48.65;21.67;;;;;;;9.65;55.62;102767.34;5071333;28;20044;-73
2022/01/24 00:53:37;;;;;;;39.50;18.90;;;;;;;9.53;56.19;102761.84;5071200;28;20041;-75
2022/01/24 00:56:04;;;;;;;39.25;18.33;;;;;;;9.64;55.63;102758.41;5070836;28;20143;-75
2022/01/24 00:58:31;;;;;;;37.50;18.98;;;;;;;9.69;55.41;102767.03;5070238;28;20514;-74
2022/01/24 01:00:57;;;;;;;39.00;19.48;;;;;;;10.08;54.46;102754.50;5069606;28;20453;-74
2022/01/24 01:03:24;;;;;;;32.83;16.77;;;;;;;9.66;55.51;102764.56;5071064;28;20040;-74
2022/01/24 01:06:04;;;;;;;34.35;18.75;;;;;;;9.65;55.64;102749.44;5071424;28;20206;-75
2022/01/24 01:19:35;;;;;;;34.25;18.25;;;;;;;9.61;55.59;102752.41;5070885;28;20196;-75
2022/01/24 01:22:02;;;;;;;42.10;18.70;;;;;;;9.60;55.63;102756.06;5070243;28;20087;-75
2022/01/24 01:24:33;;;;;;;33.83;18.38;;;;;;;9.62;55.63;102754.16;5052335;28;20045;-75
2022/01/24 01:27:12;;;;;;;23.38;13.05;;;;;;;9.62;55.57;102752.31;5073330;28;20140;-75
2022/01/24 01:29:51;;;;;;;36.28;17.40;;;;;;;9.61;55.74;102761.31;5074065;28;20135;-74
2022/01/24 01:32:40;;;;;;;31.67;18.38;;;;;;;9.68;55.45;102753.72;5074316;28;20144;-75
2022/01/24 01:35:20;;;;;;;35.58;18.38;;;;;;;9.63;55.56;102746.00;5072117;28;20048;-74
2022/01/24 01:57:13;;;;;;;27.23;16.50;;;;;;;9.59;55.81;102757.88;4992845;28;20050;-75
2022/01/24 01:59:40;;;;;;;30.02;16.63;;;;;;;9.66;55.52;102756.50;4992942;28;20145;-75
2022/01/24 02:02:07;;;;;;;26.02;16.40;;;;;;;9.61;55.66;102755.09;4992246;28;20125;-75
2022/01/24 02:04:33;;;;;;;25.83;16.77;;;;;;;9.61;55.61;102763.13;4992331;28;20507;-75
2022/01/24 02:07:22;;;;;;;27.88;16.08;;;;;;;9.65;55.47;102764.66;4993194;28;20595;-75
2022/01/24 02:09:48;;;;;;;26.17;15.50;;;;;;;9.39;56.36;102758.38;4993207;28;20046;-75
2022/01/24 02:12:18;;;;;;;27.73;15.63;;;;;;;9.45;55.84;102760.66;5037360;28;20464;-75
2022/01/24 02:14:51;;;;;;;25.45;14.95;;;;;;;9.44;55.90;102751.75;5053548;28;20060;-75
2022/01/24 02:17:28;;;;;;;23.58;14.65;;;;;;;9.22;56.43;102751.41;5054336;28;20041;-75
2022/01/24 02:24:56;;;;;;;24.83;13.90;;;;;;;9.01;56.76;102742.97;5054809;28;20120;-75
2022/01/24 02:27:26;;;;;;;25.85;14.07;;;;;;;9.18;56.04;102758.81;5052898;28;20068;-75
2022/01/24 02:30:08;;;;;;;24.15;13.93;;;;;;;8.93;56.91;102748.84;5054004;28;20132;-75
2022/01/24 02:32:39;;;;;;;25.73;13.00;;;;;;;9.20;56.48;102743.50;5053132;28;20045;-75
2022/01/24 02:35:07;;;;;;;25.30;13.63;;;;;;;9.28;56.19;102745.69;5052700;28;20071;-75
2022/01/24 02:37:34;;;;;;;23.58;13.82;;;;;;;9.23;56.07;102742.41;5052139;28;20460;-75
2022/01/24 02:40:12;;;;;;;26.55;13.07;;;;;;;9.36;55.74;102743.34;5052570;28;20069;-75
2022/01/24 02:48:28;;;;;;;20.67;12.20;;;;;;;9.41;55.54;102748.44;5052301;28;20044;-75
2022/01/24 02:53:32;;;;;;;21.35;11.65;;;;;;;9.31;55.82;102741.00;5052866;28;20049;-75
2022/01/24 02:55:59;;;;;;;25.60;12.18;;;;;;;9.36;55.78;102747.84;5053398;28;20060;-75
2022/01/24 02:58:25;;;;;;;19.13;11.90;;;;;;;9.42;55.57;102742.94;5050682;28;20132;-75
2022/01/24 03:00:53;;;;;;;21.42;12.73;;;;;;;9.43;55.49;102741.97;5053486;28;20052;-76
2022/01/24 03:03:20;;;;;;;17.58;12.57;;;;;;;9.28;56.13;102740.34;5052075;28;20095;-76
2022/01/24 03:05:47;;;;;;;21.35;13.18;;;;;;;9.33;55.95;102738.19;5052084;28;20036;-76
2022/01/24 03:08:15;;;;;;;16.67;11.18;;;;;;;9.29;55.94;102745.59;5053057;28;20135;-76
2022/01/24 03:10:45;;;;;;;21.20;11.55;;;;;;;9.36;55.36;102729.09;5052241;28;20120;-76
2022/01/24 03:15:41;;;;;;;21.00;12.80;;;;;;;9.30;55.59;102733.03;5052495;28;20132;-75
2022/01/24 03:18:08;;;;;;;21.77;12.10;;;;;;;9.41;55.65;102721.63;5052649;28;20127;-75
2022/01/24 03:20:34;;;;;;;23.58;13.05;;;;;;;9.20;56.04;102726.59;5051889;28;20056;-75
2022/01/24 03:23:01;;;;;;;23.75;13.73;;;;;;;9.38;55.85;102728.06;5051519;28;20068;-75
2022/01/24 03:25:28;;;;;;;22.55;14.65;;;;;;;9.46;55.64;102720.34;5052326;28;20408;-74
2022/01/24 03:27:54;;;;;;;24.83;15.30;;;;;;;9.44;55.83;102724.97;5055202;28;20052;-74
2022/01/24 03:30:21;;;;;;;29.38;16.48;;;;;;;9.47;55.67;102724.75;5056124;28;20123;-74
2022/01/24 03:32:48;;;;;;;26.05;15.55;;;;;;;9.39;55.83;102728.91;5052002;28;20537;-74
2022/01/24 03:35:14;;;;;;;23.02;14.82;;;;;;;9.42;55.60;102726.88;5051649;28;20053;-74
2022/01/24 03:37:41;;;;;;;24.08;13.88;;;;;;;9.37;55.82;102729.03;5051871;28;20085;-74
2022/01/24 03:40:08;;;;;;;25.88;15.63;;;;;;;9.35;55.58;102733.59;5054658;28;20044;-74
2022/01/24 03:42:34;;;;;;;25.70;14.75;;;;;;;9.44;55.43;102732.13;5052459;28;20072;-74
2022/01/24 03:45:05;;;;;;;26.88;14.40;;;;;;;9.30;55.72;102733.03;5051986;28;20144;-75
2022/01/24 03:50:03;;;;;;;25.70;15.40;;;;;;;9.33;55.40;102746.22;5051127;28;20551;-74
2022/01/24 03:52:30;;;;;;;23.30;14.85;;;;;;;9.28;55.60;102751.06;5051508;28;20052;-74
2022/01/24 03:54:58;;;;;;;23.83;15.82;;;;;;;9.27;55.70;102749.34;5034435;28;20079;-74
2022/01/24 03:57:25;;;;;;;25.95;15.15;;;;;;;9.21;55.81;102750.56;5051663;28;20049;-74
2022/01/24 03:59:52;;;;;;;24.90;15.75;;;;;;;9.26;55.51;102752.97;5051443;28;20465;-74
2022/01/24 04:02:23;;;;;;;26.17;16.55;;;;;;;9.20;55.76;102750.69;5051698;28;20044;-74
2022/01/24 04:04:51;;;;;;;19.75;11.70;;;;;;;9.25;55.42;102748.56;5051907;28;20067;-74
2022/01/24 04:07:17;;;;;;;29.90;15.77;;;;;;;9.29;55.38;102747.41;5051321;28;20064;-75
2022/01/24 04:09:44;;;;;;;26.05;14.25;;;;;;;9.28;55.44;102745.69;5041370;28;20076;-75
2022/01/24 04:12:12;;;;;;;28.42;15.02;;;;;;;9.24;55.76;102749.56;5050254;28;20055;-75
2022/01/24 04:14:54;;;;;;;22.42;14.98;;;;;;;9.34;55.35;102733.72;5036551;28;20070;-75
2022/01/24 04:17:24;;;;;;;24.10;14.65;;;;;;;9.23;55.85;102737.06;5063462;28;20513;-75
2022/01/24 04:22:28;;;;;;;26.17;15.32;;;;;;;9.20;55.71;102748.00;5071229;28;20481;-75
2022/01/24 04:25:00;;;;;;;24.65;15.50;;;;;;;9.16;55.85;102744.69;5052949;28;20079;-75
2022/01/24 04:27:27;;;;;;;24.10;15.52;;;;;;;9.18;55.66;102747.22;5070740;28;20079;-75
2022/01/24 04:29:55;;;;;;;29.85;15.07;;;;;;;9.22;55.70;102741.56;5065307;28;20072;-76
2022/01/24 04:32:22;;;;;;;28.40;16.00;;;;;;;9.39;55.31;102732.44;5058005;28;20127;-75
2022/01/24 04:34:49;;;;;;;28.73;16.58;;;;;;;9.29;55.56;102744.72;5065237;28;20074;-75
2022/01/24 04:37:16;;;;;;;32.45;17.02;;;;;;;9.21;55.83;102744.34;5070036;28;20544;-73
2022/01/24 04:39:44;;;;;;;28.67;17.83;;;;;;;9.06;56.35;102747.09;5049831;28;20061;-75
2022/01/24 04:42:16;;;;;;;30.50;18.52;;;;;;;9.19;55.96;102747.13;5047589;28;20041;-75
2022/01/24 04:44:53;;;;;;;29.83;17.17;;;;;;;9.17;55.43;102748.22;5050496;28;20141;-74
2022/01/24 04:47:29;;;;;;;26.35;17.33;;;;;;;9.17;55.79;102749.06;5050585;28;20080;-74
2022/01/24 04:52:53;;;;;;;37.55;17.95;;;;;;;9.27;55.78;102754.72;5049844;28;20076;-74
2022/01/24 04:55:20;;;;;;;29.65;17.60;;;;;;;9.03;56.36;102747.28;5051007;28;20576;-75
2022/01/24 04:57:46;;;;;;;28.70;17.15;;;;;;;9.05;56.27;102748.03;5050605;28;20045;-75
2022/01/24 05:00:14;;;;;;;26.42;18.58;;;;;;;9.18;56.09;102752.59;5051484;28;20143;-74
2022/01/24 05:02:40;;;;;;;25.77;18.15;;;;;;;9.09;56.08;102752.25;5053390;28;20049;-74
2022/01/24 05:05:12;;;;;;;51.78;25.75;;;;;;;9.15;55.90;102750.13;5054064;28;20044;-74
2022/01/24 05:07:38;;;;;;;32.78;20.00;;;;;;;9.14;56.11;102759.97;5053724;28;20128;-74
2022/01/24 05:21:22;;;;;;;27.73;17.20;;;;;;;8.90;56.34;102764.25;5054362;28;20048;-74
2022/01/24 05:23:37;;;;;;;23.38;15.98;;;;;;;8.67;56.25;102765.72;5074237;28;20041;-74
2022/01/24 05:26:06;;;;;;;28.70;15.80;;;;;;;8.63;56.59;102765.06;5073658;28;20049;-74
2022/01/24 05:28:34;;;;;;;29.67;16.48;;;;;;;8.83;56.00;102766.47;5074248;28;20051;-74
2022/01/24 05:31:01;;;;;;;25.80;16.48;;;;;;;8.88;55.68;102775.03;5073710;28;20124;-74
2022/01/24 05:33:29;;;;;;;30.95;17.35;;;;;;;8.73;56.07;102771.53;5073453;28;20132;-74
2022/01/24 05:35:56;;;;;;;29.65;18.33;;;;;;;8.86;55.85;102776.97;5057169;28;20123;-74
2022/01/24 05:38:22;;;;;;;30.52;18.17;;;;;;;8.91;55.68;102774.84;5074084;28;20120;-74
2022/01/24 05:40:50;;;;;;;23.48;16.95;;;;;;;8.93;55.44;102775.63;5073971;28;20392;-74
2022/01/24 05:43:16;;;;;;;33.47;17.02;;;;;;;8.97;55.24;102776.28;5073424;28;20436;-74
2022/01/24 05:45:43;;;;;;;27.45;17.55;;;;;;;8.92;55.48;102786.41;5072991;28;20400;-74
2022/01/24 05:48:09;;;;;;;28.60;17.25;;;;;;;8.98;55.15;102776.16;5073250;28;20044;-74
2022/01/24 05:50:36;;;;;;;28.40;17.17;;;;;;;8.40;56.64;102771.88;5073424;28;20124;-74
2022/01/24 05:53:02;;;;;;;25.42;17.52;;;;;;;8.77;55.36;102774.88;5072736;28;20140;-74
2022/01/24 05:55:29;;;;;;;26.13;17.77;;;;;;;8.62;56.50;102776.72;5072647;28;20468;-74
2022/01/24 05:57:55;;;;;;;29.30;16.83;;;;;;;8.89;55.14;102776.78;5074574;28;20044;-74
2022/01/24 06:00:22;;;;;;;23.60;15.55;;;;;;;8.76;55.62;102779.38;5073758;28;20500;-74
2022/01/24 06:02:49;;;;;;;28.83;17.40;;;;;;;8.96;55.19;102778.09;5072716;28;20048;-74
2022/01/24 06:05:16;;;;;;;24.70;15.68;;;;;;;8.75;55.63;102780.34;5062741;28;20477;-75
2022/01/24 06:07:43;;;;;;;26.08;15.93;;;;;;;8.85;55.44;102776.13;5053464;28;20049;-74
2022/01/24 06:10:09;;;;;;;24.88;16.77;;;;;;;8.88;54.99;102777.72;5054304;28;20036;-71
2022/01/24 06:12:36;;;;;;;25.00;16.10;;;;;;;8.99;54.48;102769.88;5053307;28;20038;-71
2022/01/24 06:15:03;;;;;;;25.58;15.93;;;;;;;8.92;55.11;102773.91;5053855;28;20087;-72
2022/01/24 06:17:30;;;;;;;26.58;15.10;;;;;;;8.95;55.03;102780.84;5053885;28;20132;-72
2022/01/24 06:19:56;;;;;;;25.10;15.82;;;;;;;8.95;54.89;102786.22;5054068;28;20128;-71
2022/01/24 06:22:23;;;;;;;26.30;17.23;;;;;;;8.89;55.17;102783.97;5053200;28;20524;-73
2022/01/24 06:24:49;;;;;;;26.73;16.80;;;;;;;8.74;55.63;102781.28;5053774;28;20133;-72
2022/01/24 06:27:36;;;;;;;28.50;16.70;;;;;;;8.77;55.63;102786.44;5037677;28;20481;-72
2022/01/24 06:30:03;;;;;;;27.75;16.98;;;;;;;8.91;55.32;102785.56;5051740;28;20536;-71
2022/01/24 06:32:29;;;;;;;28.48;17.95;;;;;;;8.97;54.56;102795.03;5053349;28;20127;-71
2022/01/24 06:34:56;;;;;;;26.25;16.52;;;;;;;8.83;55.10;102791.41;5053324;28;20045;-71
2022/01/24 06:37:22;;;;;;;25.45;14.77;;;;;;;8.93;54.82;102791.69;5061771;28;20036;-71
2022/01/24 06:39:49;;;;;;;24.88;14.90;;;;;;;8.82;55.41;102789.69;5055682;28;20485;-71
2022/01/24 06:42:22;;;;;;;20.30;13.85;;;;;;;8.79;54.92;102797.91;5071815;28;20040;-71
2022/01/24 06:44:50;;;;;;;15.65;11.15;;;;;;;8.74;55.04;102789.31;5072817;28;20072;-71
2022/01/24 06:47:17;;;;;;;16.65;11.00;;;;;;;8.34;56.23;102794.50;5073155;28;20040;-72
2022/01/24 06:49:43;;;;;;;15.65;10.98;;;;;;;8.48;55.90;102799.00;5072181;28;20044;-73
2022/01/24 06:52:10;;;;;;;19.38;11.40;;;;;;;8.49;55.94;102805.19;5072678;28;20459;-72
2022/01/24 06:54:37;;;;;;;16.08;11.75;;;;;;;8.61;55.70;102799.94;5061548;28;20067;-72
2022/01/24 06:57:04;;;;;;;21.42;11.85;;;;;;;8.48;55.86;102804.34;5071294;28;20140;-72
2022/01/24 06:59:30;;;;;;;17.10;11.32;;;;;;;8.49;55.72;102811.41;5072132;28;20503;-72
2022/01/24 07:01:56;;;;;;;17.73;11.95;;;;;;;8.58;55.79;102809.97;5071617;28;20485;-72
2022/01/24 07:04:23;;;;;;;17.48;11.02;;;;;;;8.40;56.05;102812.00;5069630;28;20526;-72
2022/01/24 07:06:51;;;;;;;19.38;12.05;;;;;;;8.66;54.73;102817.53;5073194;28;20086;-75
2022/01/24 07:09:17;;;;;;;17.58;11.52;;;;;;;8.46;55.75;102822.28;5073873;28;20060;-74
2022/01/24 07:11:44;;;;;;;17.98;11.70;;;;;;;8.44;55.80;102821.53;5072078;28;20057;-74
2022/01/24 07:14:13;;;;;;;19.15;12.10;;;;;;;8.26;56.50;102820.88;5072679;28;20135;-75
2022/01/24 07:17:05;;;;;;;19.63;12.07;;;;;;;8.68;55.25;102826.28;5058350;28;20075;-74
2022/01/24 07:19:32;;;;;;;21.35;13.50;;;;;;;8.46;55.84;102816.94;5052062;28;20049;-74
2022/01/24 07:22:01;;;;;;;20.38;12.90;;;;;;;8.45;56.02;102820.56;5052715;28;20064;-75
2022/01/24 07:24:28;;;;;;;21.63;13.52;;;;;;;8.38;56.13;102819.25;5051214;28;20041;-74
2022/01/24 07:26:55;;;;;;;25.30;15.95;;;;;;;8.44;56.24;102821.53;5053917;28;20589;-75
2022/01/24 07:29:22;;;;;;;29.95;17.40;;;;;;;8.64;55.49;102825.63;5051751;28;20128;-76
2022/01/24 07:31:49;;;;;;;29.95;15.75;;;;;;;8.66;55.37;102823.72;5051662;28;20468;-77
2022/01/24 07:34:16;;;;;;;27.60;16.20;;;;;;;8.85;54.93;102828.81;5050303;28;20049;-74
2022/01/24 07:36:43;;;;;;;24.45;13.68;;;;;;;8.83;54.74;102828.88;5052014;28;20131;-74
2022/01/24 07:39:11;;;;;;;26.67;15.20;;;;;;;8.78;55.11;102828.31;5051535;28;20068;-75
2022/01/24 07:41:46;;;;;;;24.35;14.43;;;;;;;8.82;54.74;102834.34;5051182;28;20045;-76
2022/01/24 07:44:14;;;;;;;24.90;14.77;;;;;;;8.83;54.86;102836.06;5051314;28;20072;-75
2022/01/24 07:46:40;;;;;;;27.35;16.00;;;;;;;8.93;54.46;102830.97;5051151;28;20560;-75
2022/01/24 07:49:10;;;;;;;21.63;13.50;;;;;;;8.97;54.36;102822.66;5050940;28;20070;-76
2022/01/24 07:51:37;;;;;;;26.88;14.48;;;;;;;8.98;54.50;102829.72;5051512;28;20068;-74
2022/01/24 07:54:04;;;;;;;27.02;15.40;;;;;;;8.96;54.73;102823.59;5053290;28;20082;-75
2022/01/24 07:56:31;;;;;;;25.88;15.05;;;;;;;9.01;54.79;102829.50;5059038;28;20075;-75
2022/01/24 07:58:58;;;;;;;25.60;14.55;;;;;;;9.01;54.53;102829.50;5059605;28;20074;-75
2022/01/24 08:01:26;;;;;;;28.33;15.25;;;;;;;9.06;54.34;102829.25;5070686;28;20044;-74
2022/01/24 08:03:53;;;;;;;23.55;13.93;;;;;;;9.13;54.54;102830.56;5070500;28;20044;-74
2022/01/24 08:06:21;;;;;;;30.08;14.50;;;;;;;9.29;53.69;102831.28;5071135;28;20443;-74
2022/01/24 08:08:48;;;;;;;23.73;13.05;;;;;;;9.34;53.74;102825.66;5070328;28;20052;-73
2022/01/24 08:11:16;;;;;;;26.40;13.88;;;;;;;9.42;53.41;102830.50;5070412;28;20396;-74
2022/01/24 08:13:43;;;;;;;19.92;12.02;;;;;;;9.39;53.21;102831.56;5070294;28;20045;-75
2022/01/24 08:16:09;;;;;;;18.67;11.15;;;;;;;9.46;53.24;102830.19;5068696;28;20131;-74
2022/01/24 08:18:36;;;;;;;15.77;10.13;;;;;;;9.72;52.29;102832.97;5070662;28;20045;-75
2022/01/24 08:21:02;;;;;;;18.63;10.15;;;;;;;9.62;52.14;102840.75;5066186;28;20059;-75
2022/01/24 08:23:29;;;;;;;17.10;10.00;;;;;;;9.54;52.37;102835.91;5071055;28;20128;-73
2022/01/24 08:25:55;;;;;;;20.38;9.88;;;;;;;8.95;54.10;102842.44;5063694;28;20048;-75
2022/01/24 08:28:22;;;;;;;21.02;10.70;;;;;;;9.02;54.11;102847.31;5062904;28;20401;-75
2022/01/24 08:30:49;;;;;;;17.60;9.85;;;;;;;9.23;53.27;102845.06;5071467;28;20068;-75
2022/01/24 08:33:15;;;;;;;16.45;10.68;;;;;;;9.24;53.32;102848.66;5071330;28;20049;-75
2022/01/24 08:35:42;;;;;;;16.75;10.20;;;;;;;9.37;52.66;102841.53;5075999;28;20108;-75
2022/01/24 08:38:09;;;;;;;17.70;10.52;;;;;;;9.31;53.26;102841.94;5071595;28;20048;-75
2022/01/24 08:40:38;;;;;;;17.77;10.00;;;;;;;9.53;52.38;102841.38;5070999;28;20079;-75
2022/01/24 08:43:06;;;;;;;17.88;10.63;;;;;;;9.49;52.65;102850.56;5071581;28;20045;-74
2022/01/24 08:48:14;;;;;;;17.95;10.40;;;;;;;9.58;52.64;102836.56;5070995;28;20263;-72
2022/01/24 08:50:42;;;;;;;17.48;10.13;;;;;;;9.68;52.37;102836.78;5065417;28;20135;-73
2022/01/24 08:53:10;;;;;;;15.85;9.55;;;;;;;9.48;52.49;102828.28;5053262;28;20400;-73
2022/01/24 08:55:38;;;;;;;28.45;15.43;;;;;;;9.83;51.93;102830.41;5045626;28;20434;-73
2022/01/24 08:58:07;;;;;;;21.90;12.55;;;;;;;9.79;51.97;102831.59;5052027;28;20127;-73
2022/01/24 09:00:34;;;;;;;19.90;11.00;;;;;;;9.72;52.35;102830.28;5051263;28;20128;-74
2022/01/24 09:03:01;;;;;;;14.23;8.90;;;;;;;9.93;51.53;102827.97;5051546;28;20037;-73
2022/01/24 09:05:34;;;;;;;18.95;9.48;;;;;;;10.18;50.83;102835.19;5053843;28;20048;-73
2022/01/24 09:08:03;;;;;;;16.38;9.90;;;;;;;10.27;50.76;102831.88;5051990;28;20045;-74
2022/01/24 09:10:32;;;;;;;21.70;10.25;;;;;;;10.40;50.50;102831.88;5058911;28;20076;-74
2022/01/24 09:12:58;;;;;;;16.20;9.40;;;;;;;10.13;50.30;102834.63;5058422;28;20123;-73
2022/01/24 09:15:25;;;;;;;18.00;10.10;;;;;;;10.42;49.99;102836.16;5051871;28;20523;-73
2022/01/24 09:17:52;;;;;;;17.95;9.13;;;;;;;10.48;49.78;102833.06;5061079;28;20470;-73
2022/01/24 09:20:18;;;;;;;14.70;9.70;;;;;;;10.11;50.31;102832.06;5063182;28;20079;-74
2022/01/24 09:22:47;;;;;;;14.60;7.95;;;;;;;10.37;49.81;102837.44;5071190;28;20111;-74
2022/01/24 09:25:15;;;;;;;17.73;9.30;;;;;;;10.36;49.61;102833.91;5052288;28;20132;-74
2022/01/24 09:27:43;;;;;;;14.85;9.50;;;;;;;10.11;49.98;102829.38;5050460;28;20045;-74
2022/01/24 09:30:13;;;;;;;15.18;9.73;;;;;;;10.20;50.50;102830.56;5057453;28;20048;-74
2022/01/24 09:32:41;;;;;;;25.95;13.75;;;;;;;10.40;49.42;102822.00;5056044;28;20053;-73
2022/01/24 09:35:09;;;;;;;16.85;9.93;;;;;;;10.25;49.97;102820.38;5067881;28;20127;-73
2022/01/24 09:37:37;;;;;;;16.00;8.45;;;;;;;10.41;49.63;102823.72;5067315;28;20055;-73
2022/01/24 09:40:05;;;;;;;21.50;9.45;;;;;;;10.64;48.95;102821.25;5051436;28;20098;-74
2022/01/24 09:42:32;;;;;;;14.60;9.65;;;;;;;10.66;49.21;102816.66;5049619;28;20136;-73
2022/01/24 09:44:58;;;;;;;20.20;13.15;;;;;;;10.80;49.42;102821.03;5050996;28;20080;-73
2022/01/24 09:47:25;;;;;;;14.55;9.20;;;;;;;10.93;48.41;102820.03;5033632;28;20120;-73
2022/01/24 09:49:52;;;;;;;16.08;10.02;;;;;;;10.73;48.91;102823.28;5054894;28;20374;-73
2022/01/24 09:52:19;;;;;;;12.48;8.00;;;;;;;10.96;47.86;102822.50;5054041;28;20044;-73
2022/01/24 09:54:46;;;;;;;18.80;7.75;;;;;;;10.77;48.74;102818.56;5057890;28;20136;-73
2022/01/24 09:57:13;;;;;;;17.67;6.90;;;;;;;10.45;48.44;102816.31;5064838;28;20048;-73
2022/01/24 09:59:39;;;;;;;10.18;6.22;;;;;;;10.40;48.57;102816.63;5073315;28;20141;-73
2022/01/24 10:02:06;;;;;;;10.32;6.72;;;;;;;10.42;48.58;102822.75;5073968;28;20052;-74
2022/01/24 10:04:33;;;;;;;9.15;6.20;;;;;;;10.50;47.89;102820.41;5054485;28;20124;-74
2022/01/24 10:07:02;;;;;;;10.60;7.25;;;;;;;10.31;48.58;102819.97;5054230;28;20041;-73
2022/01/24 10:09:40;;;;;;;11.80;6.32;;;;;;;10.20;48.84;102825.19;5054058;28;20088;-73
2022/01/24 10:12:19;;;;;;;14.88;7.93;;;;;;;10.03;49.42;102826.38;5065166;28;20044;-73
2022/01/24 10:17:36;;;;;;;17.17;7.45;;;;;;;10.17;49.08;102830.81;5073656;28;20550;-74
2022/01/24 10:20:18;;;;;;;12.55;7.50;;;;;;;10.07;49.21;102824.34;5073218;28;20524;-74
2022/01/24 10:23:09;;;;;;;10.60;6.55;;;;;;;10.44;48.32;102819.94;5062007;28;20068;-74
2022/01/24 10:25:48;;;;;;;18.05;7.88;;;;;;;10.15;49.44;102824.66;5065694;28;20558;-73
2022/01/24 10:28:37;;;;;;;14.40;8.30;;;;;;;10.09;49.76;102817.91;5055618;28;20047;-75
2022/01/24 10:31:11;;;;;;;14.95;8.60;;;;;;;9.84;50.76;102813.38;5073734;28;20049;-73
2022/01/24 10:34:18;;;;;;;13.45;7.22;;;;;;;10.15;49.15;102811.25;5060820;28;20397;-73
2022/01/24 10:36:50;;;;;;;13.73;7.90;;;;;;;9.99;49.67;102809.66;5051671;28;20053;-75
2022/01/24 10:45:01;;;;;;;15.23;7.18;;;;;;;10.45;48.26;102803.75;5064356;28;20135;-74
2022/01/24 10:47:32;;;;;;;12.02;6.95;;;;;;;10.10;49.31;102800.88;5056407;28;20044;-74
2022/01/24 10:50:01;;;;;;;14.40;7.07;;;;;;;10.15;48.87;102801.38;5073039;28;21570;-74
2022/01/24 10:52:30;;;;;;;14.50;7.18;;;;;;;9.93;49.37;102793.97;5062081;28;20044;-75
2022/01/24 10:55:12;;;;;;;11.88;7.40;;;;;;;10.42;47.86;102795.91;5052433;28;20573;-75
2022/01/24 10:57:42;;;;;;;;;;;;;;;10.64;47.51;102789.03;5052152;28;20049;-75
2022/01/24 11:00:21;;;;;;;15.50;8.68;;;;;;;10.57;47.86;102787.78;5056095;28;20271;-74
2022/01/24 11:02:51;;;;;;;13.52;7.82;;;;;;;10.44;47.96;102780.56;5071534;28;20044;-74
2022/01/24 11:05:21;;;;;;;12.57;8.40;;;;;;;10.31;48.55;102782.41;5071573;28;20053;-74
2022/01/24 11:08:04;;;;;;;15.93;8.35;;;;;;;10.81;47.18;102785.16;5055418;28;20481;-74
2022/01/24 11:10:37;;;;;;;12.63;8.27;;;;;;;9.81;49.02;102786.75;5071521;28;20072;-75
2022/01/24 11:13:05;;;;;;;13.93;8.45;;;;;;;10.53;47.49;102788.97;5071756;28;20405;-74
2022/01/24 11:15:33;;;;;;;15.40;8.10;;;;;;;10.42;47.73;102776.28;5068101;28;20044;-75
2022/01/24 11:18:01;;;;;;;10.48;7.00;;;;;;;10.13;48.24;102775.63;5060198;28;20067;-75
2022/01/24 11:20:32;;;;;;;12.20;7.07;;;;;;;10.40;47.36;102775.50;5063613;28;20044;-75
2022/01/24 11:23:02;;;;;;;12.48;7.50;;;;;;;10.34;47.64;102768.78;5071872;28;20132;-75
2022/01/24 11:25:39;;;;;;;16.13;8.30;;;;;;;10.41;47.49;102763.81;5066914;28;20540;-74
2022/01/24 11:28:07;;;;;;;17.55;7.88;;;;;;;10.25;47.80;102764.06;5072688;28;20040;-74
2022/01/24 11:30:57;;;;;;;13.07;7.60;;;;;;;10.40;47.36;102760.28;5061836;28;20064;-74
2022/01/24 11:33:34;;;;;;;12.35;7.15;;;;;;;9.99;48.06;102761.38;5071480;28;20048;-74
2022/01/24 11:36:02;;;;;;;12.43;7.28;;;;;;;10.11;47.86;102759.66;5071618;28;20465;-75
2022/01/24 11:38:28;;;;;;;10.30;6.85;;;;;;;9.29;49.43;102761.66;5071422;28;20075;-75
2022/01/24 11:41:00;;;;;;;13.55;6.97;;;;;;;9.72;48.66;102760.59;5072078;28;20075;-74
2022/01/24 11:43:33;;;;;;;13.15;7.90;;;;;;;9.75;48.56;102755.00;5058798;28;20098;-74
2022/01/24 11:46:07;;;;;;;14.20;7.38;;;;;;;9.86;48.42;102756.97;5034707;28;20098;-74
2022/01/24 11:48:38;;;;;;;17.75;7.32;;;;;;;10.16;47.73;102759.31;5069875;28;20491;-75
2022/01/24 11:51:12;;;;;;;18.85;8.13;;;;;;;10.16;47.84;102756.66;5066082;28;20459;-75
2022/01/24 11:53:46;;;;;;;12.82;7.47;;;;;;;10.08;48.00;102750.97;5056436;28;20485;-75
2022/01/24 11:56:25;;;;;;;10.35;5.85;;;;;;;9.77;48.55;102750.41;5069179;28;20044;-74
2022/01/24 11:59:22;;;;;;;10.63;6.25;;;;;;;9.88;47.95;102747.84;5066597;28;20099;-75
2022/01/24 12:02:10;;;;;;;7.63;4.88;;;;;;;9.62;48.15;102748.78;5051126;28;20072;-74
2022/01/24 12:04:52;;;;;;;8.98;4.53;;;;;;;9.56;48.54;102756.28;5051569;28;20481;-75
2022/01/24 12:07:25;;;;;;;8.82;5.00;;;;;;;9.54;48.47;102750.19;5054745;28;20044;-74
2022/01/24 12:09:53;;;;;;;11.25;4.88;;;;;;;9.61;48.33;102752.41;5058851;28;20053;-74
2022/01/24 12:12:41;;;;;;;6.28;4.10;;;;;;;9.51;48.29;102753.06;5062147;28;20361;-74
2022/01/24 12:15:10;;;;;;;7.25;4.95;;;;;;;9.21;49.40;102744.34;5063772;28;20118;-74
2022/01/24 12:17:49;;;;;;;7.25;4.75;;;;;;;9.61;48.22;102747.06;5052025;28;20141;-74
2022/01/24 12:20:30;;;;;;;11.00;6.10;;;;;;;9.41;48.70;102751.97;5051528;28;20132;-74
2022/01/24 12:23:25;;;;;;;13.13;5.60;;;;;;;9.37;48.63;102753.13;5051189;28;20477;-75
2022/01/24 12:26:12;;;;;;;11.95;5.10;;;;;;;9.30;48.90;102739.28;5062937;28;20047;-74
2022/01/24 12:28:41;;;;;;;10.05;4.35;;;;;;;9.18;49.49;102739.19;5056101;28;20131;-74
2022/01/24 12:31:10;;;;;;;8.57;5.22;;;;;;;9.19;49.24;102738.22;5070616;28;20040;-74
2022/01/24 12:33:56;;;;;;;9.88;5.57;;;;;;;8.95;49.89;102744.22;5060085;28;20053;-74
2022/01/24 12:36:38;;;;;;;9.90;5.30;;;;;;;8.93;50.17;102739.97;5052459;28;20119;-73
2022/01/24 12:39:13;;;;;;;9.20;5.03;;;;;;;9.23;49.52;102742.41;5062181;28;20049;-75
2022/01/24 12:41:47;;;;;;;8.00;4.95;;;;;;;9.23;49.79;102726.34;5057341;28;20064;-75
2022/01/24 12:47:08;;;;;;;9.10;6.07;;;;;;;9.04;50.37;102732.09;5054049;28;20136;-74
2022/01/24 12:49:35;;;;;;;;;;;;;;;9.38;49.42;102727.19;5052207;28;20151;-74
2022/01/24 12:52:13;;;;;;;13.10;5.35;;;;;;;9.56;49.02;102732.16;5051429;28;19928;-74
2022/01/24 12:54:46;;;;;;;9.98;6.35;;;;;;;9.55;49.21;102737.63;5059434;28;20041;-74
2022/01/24 12:57:15;;;;;;;11.02;5.63;;;;;;;9.52;49.15;102730.66;5070836;28;20127;-74
2022/01/24 12:59:52;;;;;;;11.57;5.55;;;;;;;9.48;49.54;102728.28;5071037;28;20076;-74
2022/01/24 13:02:27;;;;;;;9.77;5.32;;;;;;;9.05;50.69;102725.75;5070330;28;20103;-74
2022/01/24 13:05:05;;;;;;;7.85;5.22;;;;;;;9.29;50.25;102724.16;5071489;28;20048;-74
2022/01/24 13:07:32;;;;;;;9.13;5.35;;;;;;;9.26;50.24;102721.69;5070902;28;21886;-74
2022/01/24 13:10:04;;;;;;;8.13;5.50;;;;;;;9.18;49.98;102720.47;5062095;28;20139;-74
2022/01/24 13:12:30;;;;;;;;;;;;;;;9.35;49.48;102722.03;5055900;28;20072;-74